Time;durP1;ratioP1;P1;durP2;ratioP2;P2;SDS_P1;SDS_P2;PMS_P1;PMS_P2;Temp;Humidity;BMP_temperature;BMP_pressure;BME280_temperature;BME280_humidity;BME280_pressure;Samples;Min_cycle;Max_cycle;Signal;HPM_P1;HPM_P2
2022/03/08 00:01:44;;;;;;;65.88;40.25;;;;;;;;;;5072736;28;20073;-49
2022/03/08 00:04:10;;;;;;;63.38;39.25;;;;;;;;;;5074765;28;20024;-48
2022/03/08 00:06:37;;;;;;;59.35;37.00;;;;;;;;;;5077513;28;20349;-49
2022/03/08 00:09:03;;;;;;;65.07;40.85;;;;;;;;;;5076908;28;20391;-48
2022/03/08 00:11:29;;;;;;;63.47;37.65;;;;;;;;;;5077221;28;20021;-47
2022/03/08 00:13:55;;;;;;;62.67;40.05;;;;;;;;;;5076822;28;20032;-50
2022/03/08 00:16:22;;;;;;;61.58;40.03;;;;;;;;;;5077049;28;20039;-46
2022/03/08 00:18:51;;;;;;;56.15;34.67;;;;;;;;;;5076896;28;20490;-48
2022/03/08 00:21:17;;;;;;;57.33;35.72;;;;;;;;;;5076864;28;20081;-48
2022/03/08 00:23:44;;;;;;;56.40;34.97;;;;;;;;;;5076942;28;20048;-48
2022/03/08 00:26:10;;;;;;;52.95;32.08;;;;;;;;;;5076482;28;20021;-48
2022/03/08 00:28:36;;;;;;;46.88;30.50;;;;;;;;;;5076127;28;20160;-48
2022/03/08 00:31:03;;;;;;;53.50;33.78;;;;;;;;;;5076568;28;20379;-49
2022/03/08 00:33:29;;;;;;;50.88;32.05;;;;;;;;;;5076638;28;20107;-49
2022/03/08 00:35:55;;;;;;;61.88;36.80;;;;;;;;;;5076739;28;20033;-48
2022/03/08 00:38:21;;;;;;;55.05;34.55;;;;;;;;;;5075445;28;20020;-53
2022/03/08 00:40:47;;;;;;;53.13;32.67;;;;;;;;;;5076783;28;20042;-50
2022/03/08 00:43:14;;;;;;;57.50;34.03;;;;;;;;;;5076542;28;20031;-52
2022/03/08 00:45:40;;;;;;;53.10;32.78;;;;;;;;;;5076542;28;20381;-51
2022/03/08 00:48:09;;;;;;;59.33;37.90;;;;;;;;;;5076710;28;20032;-53
2022/03/08 00:50:36;;;;;;;56.03;33.35;;;;;;;;;;5076481;28;20016;-49
2022/03/08 00:53:05;;;;;;;55.30;33.60;;;;;;;;;;5076590;28;20025;-53
2022/03/08 00:55:31;;;;;;;63.25;38.92;;;;;;;;;;5058162;28;20486;-52
2022/03/08 00:57:58;;;;;;;61.67;36.38;;;;;;;;;;5076279;28;20434;-53
2022/03/08 01:00:26;;;;;;;63.33;36.13;;;;;;;;;;5076079;28;20468;-53
2022/03/08 01:02:52;;;;;;;61.83;37.20;;;;;;;;;;5076294;28;20098;-54
2022/03/08 01:05:18;;;;;;;73.13;42.35;;;;;;;;;;5076541;28;20027;-52
2022/03/08 01:07:45;;;;;;;69.88;40.17;;;;;;;;;;5076257;28;20020;-53
2022/03/08 01:10:12;;;;;;;66.75;39.00;;;;;;;;;;5057827;28;20028;-54
2022/03/08 01:12:38;;;;;;;70.65;41.70;;;;;;;;;;5076145;28;20024;-53
2022/03/08 01:15:05;;;;;;;69.90;43.10;;;;;;;;;;5075338;28;20090;-54
2022/03/08 01:17:31;;;;;;;67.95;40.63;;;;;;;;;;5076035;28;20032;-51
2022/03/08 01:19:58;;;;;;;67.03;39.33;;;;;;;;;;5076028;28;20094;-52
2022/03/08 01:22:24;;;;;;;55.42;35.30;;;;;;;;;;5076003;28;20021;-52
2022/03/08 01:24:52;;;;;;;80.22;46.45;;;;;;;;;;5075958;28;20155;-50
2022/03/08 01:27:18;;;;;;;70.97;41.70;;;;;;;;;;5075732;28;20476;-53
2022/03/08 01:29:44;;;;;;;48.17;30.90;;;;;;;;;;5075646;28;20027;-51
2022/03/08 01:32:10;;;;;;;68.38;38.25;;;;;;;;;;5075962;28;20027;-52
2022/03/08 01:34:37;;;;;;;51.97;32.08;;;;;;;;;;5057767;28;20056;-52
2022/03/08 01:37:03;;;;;;;57.70;35.67;;;;;;;;;;5075640;28;20024;-51
2022/03/08 01:39:29;;;;;;;59.30;37.03;;;;;;;;;;5060680;28;20446;-53
2022/03/08 01:41:56;;;;;;;51.88;31.45;;;;;;;;;;5079508;28;20028;-51
2022/03/08 01:44:22;;;;;;;69.97;39.85;;;;;;;;;;5075373;28;20028;-52
2022/03/08 01:46:48;;;;;;;56.05;33.92;;;;;;;;;;5085115;28;20017;-52
2022/03/08 01:49:14;;;;;;;56.15;33.50;;;;;;;;;;5095747;28;20063;-52
2022/03/08 01:51:42;;;;;;;60.55;35.85;;;;;;;;;;5095682;28;20023;-51
2022/03/08 01:54:08;;;;;;;67.95;38.25;;;;;;;;;;5095632;28;20103;-51
2022/03/08 01:56:35;;;;;;;58.97;36.90;;;;;;;;;;5095529;28;20028;-53
2022/03/08 01:59:01;;;;;;;65.13;37.80;;;;;;;;;;5095308;28;20024;-54
2022/03/08 02:01:27;;;;;;;60.13;35.50;;;;;;;;;;5095384;28;20048;-52
2022/03/08 02:03:53;;;;;;;66.07;38.20;;;;;;;;;;5095573;28;20037;-53
2022/03/08 02:06:19;;;;;;;59.13;35.33;;;;;;;;;;5095365;28;20024;-53
2022/03/08 02:08:45;;;;;;;58.65;36.80;;;;;;;;;;5095377;28;20024;-51
2022/03/08 02:11:12;;;;;;;56.25;35.00;;;;;;;;;;5095414;28;20082;-53
2022/03/08 02:13:39;;;;;;;54.72;32.30;;;;;;;;;;5095113;28;20028;-50
2022/03/08 02:16:05;;;;;;;53.58;31.25;;;;;;;;;;5095060;28;20042;-53
2022/03/08 02:18:32;;;;;;;62.40;35.65;;;;;;;;;;5095266;28;20025;-51
2022/03/08 02:21:08;;;;;;;55.30;34.90;;;;;;;;;;5095305;28;20081;-49
2022/03/08 02:23:34;;;;;;;54.92;33.30;;;;;;;;;;5095207;28;20387;-54
2022/03/08 02:26:03;;;;;;;53.03;31.40;;;;;;;;;;5094676;28;20481;-51
2022/03/08 02:28:30;;;;;;;53.10;32.63;;;;;;;;;;5094231;28;20028;-49
2022/03/08 02:30:58;;;;;;;52.70;34.17;;;;;;;;;;5094903;28;20085;-53
2022/03/08 02:33:25;;;;;;;59.58;34.67;;;;;;;;;;5094994;28;20016;-54
2022/03/08 02:35:51;;;;;;;52.78;31.15;;;;;;;;;;5094660;28;20077;-55
2022/03/08 02:38:17;;;;;;;57.10;33.65;;;;;;;;;;5094783;28;20073;-54
2022/03/08 02:40:43;;;;;;;53.53;33.10;;;;;;;;;;5094704;28;20028;-54
2022/03/08 02:43:10;;;;;;;52.28;33.20;;;;;;;;;;5094552;28;20024;-50
2022/03/08 02:45:37;;;;;;;55.58;34.20;;;;;;;;;;5094846;28;20380;-53
2022/03/08 02:48:03;;;;;;;61.10;36.70;;;;;;;;;;5094877;28;20020;-49
2022/03/08 02:50:29;;;;;;;52.67;31.45;;;;;;;;;;5094430;28;20165;-46
2022/03/08 02:52:56;;;;;;;56.63;34.17;;;;;;;;;;5094555;28;20024;-53
2022/03/08 02:55:24;;;;;;;54.20;33.05;;;;;;;;;;5094309;28;20538;-49
2022/03/08 02:57:50;;;;;;;57.28;33.13;;;;;;;;;;5094250;28;20095;-51
2022/03/08 03:00:19;;;;;;;51.25;32.03;;;;;;;;;;5094361;28;20035;-48
2022/03/08 03:02:45;;;;;;;56.38;33.13;;;;;;;;;;5094424;28;20044;-52
2022/03/08 03:05:12;;;;;;;56.80;34.30;;;;;;;;;;5094371;28;20051;-54
2022/03/08 03:07:38;;;;;;;54.30;32.80;;;;;;;;;;5094321;28;20380;-53
2022/03/08 03:10:05;;;;;;;63.22;35.30;;;;;;;;;;5094138;28;20024;-51
2022/03/08 03:12:31;;;;;;;60.25;34.72;;;;;;;;;;5094316;28;20062;-56
2022/03/08 03:14:58;;;;;;;54.85;32.58;;;;;;;;;;5093968;28;20053;-53
2022/03/08 03:17:24;;;;;;;59.80;33.85;;;;;;;;;;5094314;28;20020;-53
2022/03/08 03:19:50;;;;;;;57.65;34.75;;;;;;;;;;5093826;28;20556;-51
2022/03/08 03:22:16;;;;;;;53.63;31.00;;;;;;;;;;5093949;28;20031;-52
2022/03/08 03:24:42;;;;;;;62.45;35.80;;;;;;;;;;5093986;28;20085;-52
2022/03/08 03:27:13;;;;;;;59.33;34.40;;;;;;;;;;5093684;28;20063;-54
2022/03/08 03:29:39;;;;;;;59.10;34.67;;;;;;;;;;5093696;28;20021;-48
2022/03/08 03:32:05;;;;;;;61.80;35.53;;;;;;;;;;5093927;28;20035;-53
2022/03/08 03:34:32;;;;;;;55.78;33.58;;;;;;;;;;5093996;28;20027;-54
2022/03/08 03:36:58;;;;;;;60.35;35.13;;;;;;;;;;5093809;28;20054;-53
2022/03/08 03:39:24;;;;;;;61.63;35.75;;;;;;;;;;5093526;28;20035;-54
2022/03/08 03:41:50;;;;;;;60.40;34.53;;;;;;;;;;5075443;28;20067;-53
2022/03/08 03:44:16;;;;;;;57.97;35.75;;;;;;;;;;5093629;28;20020;-54
2022/03/08 03:46:42;;;;;;;59.05;34.78;;;;;;;;;;5093705;28;20024;-55
2022/03/08 03:49:08;;;;;;;61.25;37.08;;;;;;;;;;5093697;28;20023;-54
2022/03/08 03:51:34;;;;;;;65.72;35.90;;;;;;;;;;5093571;28;20020;-52
2022/03/08 03:54:03;;;;;;;64.60;36.42;;;;;;;;;;5093542;28;20020;-54
2022/03/08 03:56:29;;;;;;;59.03;35.60;;;;;;;;;;5093490;28;20051;-51
2022/03/08 03:58:55;;;;;;;60.92;33.42;;;;;;;;;;5093577;28;20107;-53
2022/03/08 04:01:21;;;;;;;65.50;36.78;;;;;;;;;;5075063;28;20040;-54
2022/03/08 04:03:47;;;;;;;58.95;35.95;;;;;;;;;;5093544;28;20028;-55
2022/03/08 04:06:13;;;;;;;73.00;38.35;;;;;;;;;;5093439;28;20032;-52
2022/03/08 04:08:39;;;;;;;61.70;36.13;;;;;;;;;;5093294;28;20028;-53
2022/03/08 04:11:05;;;;;;;60.20;34.72;;;;;;;;;;5093398;28;20035;-55
2022/03/08 04:13:32;;;;;;;60.45;35.67;;;;;;;;;;5093444;28;20467;-53
2022/03/08 04:15:58;;;;;;;61.83;37.08;;;;;;;;;;5093210;28;20089;-49
2022/03/08 04:18:24;;;;;;;61.58;35.13;;;;;;;;;;5093356;28;20031;-54
2022/03/08 04:20:53;;;;;;;66.13;36.35;;;;;;;;;;5093487;28;20028;-49
2022/03/08 04:23:19;;;;;;;64.20;38.05;;;;;;;;;;5093398;28;20020;-53
2022/03/08 04:25:45;;;;;;;60.30;34.20;;;;;;;;;;5093212;28;20364;-54
2022/03/08 04:28:11;;;;;;;67.50;40.10;;;;;;;;;;5093108;28;20031;-51
2022/03/08 04:30:38;;;;;;;65.03;37.80;;;;;;;;;;5093334;28;20032;-51
2022/03/08 04:33:04;;;;;;;68.22;39.75;;;;;;;;;;5093174;28;20035;-51
2022/03/08 04:35:30;;;;;;;69.13;38.88;;;;;;;;;;5093353;28;20409;-50
2022/03/08 04:37:56;;;;;;;74.90;40.83;;;;;;;;;;5093217;28;20028;-50
2022/03/08 04:40:22;;;;;;;75.18;40.47;;;;;;;;;;5093171;28;20042;-52
2022/03/08 04:42:48;;;;;;;65.95;38.42;;;;;;;;;;5093295;28;20464;-52
2022/03/08 04:45:14;;;;;;;69.50;40.20;;;;;;;;;;5093099;28;20046;-48
2022/03/08 04:47:41;;;;;;;61.50;34.92;;;;;;;;;;5093044;28;20082;-54
2022/03/08 04:50:08;;;;;;;62.45;36.28;;;;;;;;;;5093984;28;20420;-56
2022/03/08 04:52:37;;;;;;;61.45;35.33;;;;;;;;;;5096854;28;20429;-50
2022/03/08 04:55:03;;;;;;;57.55;33.33;;;;;;;;;;5096751;28;20024;-55
2022/03/08 04:57:30;;;;;;;59.85;35.85;;;;;;;;;;5096683;28;20040;-53
2022/03/08 04:59:56;;;;;;;69.43;36.33;;;;;;;;;;5096422;28;20360;-55
2022/03/08 05:02:22;;;;;;;66.35;37.67;;;;;;;;;;5096587;28;20152;-50
2022/03/08 05:04:48;;;;;;;61.35;34.35;;;;;;;;;;5096663;28;20025;-54
2022/03/08 05:07:14;;;;;;;62.00;36.47;;;;;;;;;;5096718;28;20055;-50
2022/03/08 05:09:40;;;;;;;64.32;37.53;;;;;;;;;;5096526;28;20460;-53
2022/03/08 05:12:08;;;;;;;65.15;35.80;;;;;;;;;;5096451;28;20115;-54
2022/03/08 05:14:34;;;;;;;59.38;36.67;;;;;;;;;;5096273;28;20095;-54
2022/03/08 05:17:00;;;;;;;59.90;34.42;;;;;;;;;;5096192;28;20039;-53
2022/03/08 05:19:26;;;;;;;63.97;35.03;;;;;;;;;;5096334;28;20480;-54
2022/03/08 05:21:52;;;;;;;60.20;34.13;;;;;;;;;;5096404;28;20487;-53
2022/03/08 05:24:19;;;;;;;54.88;33.00;;;;;;;;;;5096326;28;20379;-55
2022/03/08 05:26:45;;;;;;;62.65;35.13;;;;;;;;;;5096230;28;20022;-51
2022/03/08 05:29:11;;;;;;;64.15;37.47;;;;;;;;;;5081880;28;20484;-53
2022/03/08 05:31:39;;;;;;;71.10;38.38;;;;;;;;;;5075686;28;20032;-50
2022/03/08 05:34:06;;;;;;;68.88;38.05;;;;;;;;;;5074802;28;20055;-53
2022/03/08 05:36:33;;;;;;;68.88;38.55;;;;;;;;;;5074811;28;20389;-52
2022/03/08 05:38:59;;;;;;;74.72;39.65;;;;;;;;;;5074847;28;20039;-49
2022/03/08 05:41:25;;;;;;;68.97;39.30;;;;;;;;;;5074934;28;20029;-53
2022/03/08 05:43:51;;;;;;;68.97;38.05;;;;;;;;;;5075009;28;20465;-53
2022/03/08 05:46:19;;;;;;;63.55;36.88;;;;;;;;;;5075110;28;20043;-51
2022/03/08 05:48:45;;;;;;;66.40;35.35;;;;;;;;;;5074500;28;20501;-53
2022/03/08 05:51:11;;;;;;;63.22;34.75;;;;;;;;;;5075053;28;20056;-51
2022/03/08 05:53:37;;;;;;;63.25;35.10;;;;;;;;;;5074868;28;20024;-53
2022/03/08 05:56:04;;;;;;;63.38;35.28;;;;;;;;;;5074743;28;20040;-50
2022/03/08 05:58:30;;;;;;;59.03;33.50;;;;;;;;;;5074799;28;20034;-54
2022/03/08 06:00:56;;;;;;;65.97;36.67;;;;;;;;;;5074230;28;20106;-50
2022/03/08 06:03:24;;;;;;;61.65;34.22;;;;;;;;;;5075065;28;20067;-48
2022/03/08 06:05:50;;;;;;;69.45;36.83;;;;;;;;;;5075207;28;20498;-54
2022/03/08 06:08:16;;;;;;;69.22;36.55;;;;;;;;;;5075242;28;20048;-54
2022/03/08 06:10:42;;;;;;;64.78;34.97;;;;;;;;;;5075399;28;20024;-54
2022/03/08 06:13:08;;;;;;;58.88;34.05;;;;;;;;;;5074988;28;20017;-53
2022/03/08 06:15:34;;;;;;;61.55;34.78;;;;;;;;;;5074905;28;20036;-54
2022/03/08 06:18:03;;;;;;;61.20;34.33;;;;;;;;;;5074772;28;20028;-53
2022/03/08 06:20:31;;;;;;;59.13;34.65;;;;;;;;;;5074227;28;20025;-54
2022/03/08 06:22:57;;;;;;;60.28;33.83;;;;;;;;;;5074440;28;20020;-52
2022/03/08 06:25:26;;;;;;;62.50;35.40;;;;;;;;;;5074843;28;20021;-53
2022/03/08 06:27:52;;;;;;;60.05;35.35;;;;;;;;;;5074461;28;20086;-53
2022/03/08 06:30:20;;;;;;;61.13;34.60;;;;;;;;;;5056089;28;20032;-53
2022/03/08 06:32:46;;;;;;;53.30;32.97;;;;;;;;;;5074568;28;20036;-50
2022/03/08 06:35:13;;;;;;;56.58;32.58;;;;;;;;;;5074211;28;20103;-53
2022/03/08 06:37:39;;;;;;;56.10;32.85;;;;;;;;;;5074684;28;20495;-52
2022/03/08 06:40:07;;;;;;;56.28;32.33;;;;;;;;;;5073987;28;20032;-53
2022/03/08 06:42:34;;;;;;;52.40;32.28;;;;;;;;;;5073919;28;20055;-54
2022/03/08 06:45:00;;;;;;;56.78;32.22;;;;;;;;;;5073922;28;20469;-53
2022/03/08 06:47:26;;;;;;;67.45;36.00;;;;;;;;;;5074360;28;20056;-51
2022/03/08 06:49:52;;;;;;;57.10;32.10;;;;;;;;;;5074612;28;20025;-53
2022/03/08 06:52:18;;;;;;;50.28;28.65;;;;;;;;;;5074160;28;20031;-53
2022/03/08 06:54:44;;;;;;;48.50;27.38;;;;;;;;;;5074093;28;20499;-51
2022/03/08 06:57:11;;;;;;;48.53;27.83;;;;;;;;;;5073797;28;20040;-54
2022/03/08 06:59:37;;;;;;;48.45;29.02;;;;;;;;;;5073283;28;20073;-53
2022/03/08 07:02:03;;;;;;;43.58;27.33;;;;;;;;;;5073191;28;20492;-51
2022/03/08 07:04:29;;;;;;;47.90;28.20;;;;;;;;;;5073911;28;20468;-52
2022/03/08 07:06:55;;;;;;;43.83;27.15;;;;;;;;;;5073880;28;20030;-53
2022/03/08 07:09:22;;;;;;;55.78;27.90;;;;;;;;;;5073864;28;20016;-51
2022/03/08 07:11:48;;;;;;;46.03;25.67;;;;;;;;;;5073728;28;20030;-52
2022/03/08 07:14:15;;;;;;;49.03;25.60;;;;;;;;;;5073174;28;20024;-51
2022/03/08 07:16:44;;;;;;;53.95;27.90;;;;;;;;;;5073502;28;20082;-51
2022/03/08 07:19:13;;;;;;;52.42;26.10;;;;;;;;;;5073518;28;20048;-52
2022/03/08 07:21:40;;;;;;;42.15;23.10;;;;;;;;;;5072955;28;20024;-52
2022/03/08 07:24:07;;;;;;;44.63;25.63;;;;;;;;;;5073794;28;20561;-49
2022/03/08 07:26:33;;;;;;;45.30;26.67;;;;;;;;;;5073505;28;20107;-52
2022/03/08 07:28:59;;;;;;;43.50;21.83;;;;;;;;;;5073253;28;20079;-51
2022/03/08 07:31:25;;;;;;;39.03;21.58;;;;;;;;;;5073440;28;20033;-50
2022/03/08 07:33:51;;;;;;;47.13;29.35;;;;;;;;;;5073697;28;20388;-49
2022/03/08 07:36:18;;;;;;;39.63;23.88;;;;;;;;;;5073445;28;20033;-52
2022/03/08 07:38:46;;;;;;;42.88;26.75;;;;;;;;;;5073361;28;20354;-53
2022/03/08 07:41:12;;;;;;;65.78;38.92;;;;;;;;;;5072861;28;20020;-52
2022/03/08 07:43:39;;;;;;;42.97;30.00;;;;;;;;;;5073071;28;20345;-48
2022/03/08 07:46:07;;;;;;;31.30;21.13;;;;;;;;;;5073373;28;20077;-49
2022/03/08 07:48:34;;;;;;;23.13;15.82;;;;;;;;;;5073344;28;20020;-52
2022/03/08 07:51:00;;;;;;;25.52;16.80;;;;;;;;;;5073509;28;20028;-48
2022/03/08 07:53:26;;;;;;;21.73;15.30;;;;;;;;;;5054248;28;20388;-51
2022/03/08 07:55:52;;;;;;;20.50;15.88;;;;;;;;;;5072804;28;20107;-53
2022/03/08 07:58:19;;;;;;;26.83;17.73;;;;;;;;;;5072356;28;20020;-52
2022/03/08 08:00:46;;;;;;;20.65;15.10;;;;;;;;;;5071746;28;20075;-53
2022/03/08 08:03:12;;;;;;;19.92;15.20;;;;;;;;;;5072104;28;20117;-52
2022/03/08 08:05:39;;;;;;;25.63;19.30;;;;;;;;;;5072437;28;20016;-52
2022/03/08 08:08:05;;;;;;;26.08;19.40;;;;;;;;;;5072721;28;20146;-52
2022/03/08 08:10:32;;;;;;;23.55;13.75;;;;;;;;;;5072655;28;20021;-53
2022/03/08 08:12:58;;;;;;;37.55;25.95;;;;;;;;;;5072474;28;20029;-52
2022/03/08 08:15:24;;;;;;;34.60;24.63;;;;;;;;;;5072231;28;20020;-49
2022/03/08 08:17:53;;;;;;;41.40;27.15;;;;;;;;;;5072729;28;20032;-54
2022/03/08 08:20:21;;;;;;;43.95;26.70;;;;;;;;;;5072026;28;20024;-52
2022/03/08 08:22:47;;;;;;;57.50;35.13;;;;;;;;;;5072215;28;20369;-46
2022/03/08 08:25:13;;;;;;;34.38;23.50;;;;;;;;;;5073598;28;20020;-46
2022/03/08 08:27:39;;;;;;;42.15;26.15;;;;;;;;;;5076973;28;20028;-51
2022/03/08 08:30:07;;;;;;;27.45;17.90;;;;;;;;;;5076818;28;20426;-54
2022/03/08 08:32:33;;;;;;;27.98;18.33;;;;;;;;;;5077011;28;20041;-53
2022/03/08 08:34:59;;;;;;;41.58;25.70;;;;;;;;;;5076824;28;20055;-54
2022/03/08 08:37:25;;;;;;;30.45;18.70;;;;;;;;;;5076701;28;20064;-54
2022/03/08 08:39:52;;;;;;;34.40;21.63;;;;;;;;;;5076196;28;20025;-53
2022/03/08 08:42:18;;;;;;;18.40;13.27;;;;;;;;;;5075979;28;20063;-52
2022/03/08 08:44:45;;;;;;;20.10;13.07;;;;;;;;;;5076606;28;20410;-52
2022/03/08 08:47:12;;;;;;;18.83;12.68;;;;;;;;;;5076188;28;20017;-52
2022/03/08 08:49:38;;;;;;;24.70;14.80;;;;;;;;;;5076063;28;20028;-51
2022/03/08 08:52:04;;;;;;;23.77;15.68;;;;;;;;;;5075842;28;20020;-50
2022/03/08 08:54:31;;;;;;;34.45;15.20;;;;;;;;;;5075881;28;20388;-54
2022/03/08 08:56:59;;;;;;;39.33;18.55;;;;;;;;;;5075729;28;20068;-53
2022/03/08 08:59:26;;;;;;;21.75;13.93;;;;;;;;;;5075361;28;20537;-54
2022/03/08 09:01:52;;;;;;;21.77;13.38;;;;;;;;;;5074727;28;20056;-54
2022/03/08 09:04:18;;;;;;;17.55;12.60;;;;;;;;;;5075735;28;20436;-53
2022/03/08 09:06:44;;;;;;;15.30;10.60;;;;;;;;;;5075736;28;20032;-54
2022/03/08 09:09:10;;;;;;;17.50;10.73;;;;;;;;;;5075625;28;20024;-54
2022/03/08 09:11:37;;;;;;;21.13;12.13;;;;;;;;;;5076154;28;20115;-55
2022/03/08 09:14:04;;;;;;;22.38;13.93;;;;;;;;;;5076242;28;20491;-52
2022/03/08 09:16:30;;;;;;;27.42;17.42;;;;;;;;;;5075788;28;20028;-52
2022/03/08 09:18:57;;;;;;;53.83;33.08;;;;;;;;;;5074956;28;20020;-52
2022/03/08 09:21:23;;;;;;;83.07;49.95;;;;;;;;;;5075054;28;20040;-53
2022/03/08 09:23:49;;;;;;;50.97;31.23;;;;;;;;;;5075045;28;20024;-51
2022/03/08 09:26:15;;;;;;;33.28;21.00;;;;;;;;;;5075433;28;20022;-52
2022/03/08 09:28:41;;;;;;;31.75;19.60;;;;;;;;;;5075075;28;20017;-50
2022/03/08 09:31:07;;;;;;;30.92;16.13;;;;;;;;;;5075069;28;20013;-52
2022/03/08 09:33:34;;;;;;;19.50;11.55;;;;;;;;;;5075272;28;20026;-53
2022/03/08 09:36:00;;;;;;;15.50;9.77;;;;;;;;;;5074214;28;20032;-47
2022/03/08 09:38:26;;;;;;;22.65;9.48;;;;;;;;;;5075226;28;20047;-48
2022/03/08 09:40:53;;;;;;;12.75;9.02;;;;;;;;;;5074534;28;20047;-47
2022/03/08 09:43:19;;;;;;;18.08;10.50;;;;;;;;;;5074965;28;20020;-49
2022/03/08 09:45:46;;;;;;;25.05;15.80;;;;;;;;;;5075286;28;20115;-51
2022/03/08 09:48:12;;;;;;;26.33;12.52;;;;;;;;;;5075875;28;20024;-51
2022/03/08 09:50:38;;;;;;;38.72;22.23;;;;;;;;;;5075418;28;20056;-46
2022/03/08 09:53:04;;;;;;;63.05;43.05;;;;;;;;;;5075268;28;20032;-46
2022/03/08 09:55:31;;;;;;;44.35;27.73;;;;;;;;;;5075121;28;20017;-50
2022/03/08 09:57:57;;;;;;;28.73;18.00;;;;;;;;;;5074919;28;20491;-48
2022/03/08 10:00:24;;;;;;;18.70;11.57;;;;;;;;;;5074751;28;20380;-48
2022/03/08 10:02:52;;;;;;;15.38;10.30;;;;;;;;;;5074389;28;20032;-52
2022/03/08 10:05:43;;;;;;;18.67;10.48;;;;;;;;;;5075064;28;20079;-53
2022/03/08 10:08:13;;;;;;;22.48;11.38;;;;;;;;;;5075037;28;20082;-54
2022/03/08 10:10:58;;;;;;;13.95;9.32;;;;;;;;;;5074969;28;20021;-51
2022/03/08 10:13:26;;;;;;;28.45;10.85;;;;;;;;;;5074911;28;20032;-51
2022/03/08 10:16:11;;;;;;;22.25;13.65;;;;;;;;;;5074732;28;20539;-49
2022/03/08 10:18:39;;;;;;;20.48;10.93;;;;;;;;;;5074888;28;20024;-46
2022/03/08 10:21:24;;;;;;;23.48;13.27;;;;;;;;;;5074242;28;20050;-49
2022/03/08 10:23:50;;;;;;;17.83;12.07;;;;;;;;;;5074705;28;20021;-50
2022/03/08 10:26:16;;;;;;;19.15;12.05;;;;;;;;;;5074909;28;20082;-49
2022/03/08 10:28:49;;;;;;;16.25;9.77;;;;;;;;;;5074386;28;20021;-56
2022/03/08 10:31:16;;;;;;;25.42;11.73;;;;;;;;;;5074353;28;20029;-47
2022/03/08 10:33:42;;;;;;;15.43;9.00;;;;;;;;;;5074563;28;20036;-46
2022/03/08 10:36:28;;;;;;;23.40;11.98;;;;;;;;;;5074218;28;20071;-49
2022/03/08 10:39:16;;;;;;;18.70;9.77;;;;;;;;;;5074008;28;20024;-47
2022/03/08 10:41:49;;;;;;;20.58;12.45;;;;;;;;;;5055259;28;20068;-49
2022/03/08 10:44:16;;;;;;;22.55;12.85;;;;;;;;;;5073559;28;20460;-49
2022/03/08 10:46:45;;;;;;;50.50;26.17;;;;;;;;;;5073654;28;20100;-48
2022/03/08 10:49:14;;;;;;;17.95;11.20;;;;;;;;;;5072860;28;20027;-45
2022/03/08 10:51:40;;;;;;;15.13;9.63;;;;;;;;;;5073638;28;20024;-45
2022/03/08 10:54:15;;;;;;;18.50;11.10;;;;;;;;;;5073605;28;20074;-45
2022/03/08 10:56:43;;;;;;;18.90;12.57;;;;;;;;;;5073468;28;20060;-47
2022/03/08 10:59:11;;;;;;;18.48;11.77;;;;;;;;;;5073810;28;20111;-49
2022/03/08 11:01:37;;;;;;;37.47;23.00;;;;;;;;;;5072445;28;20048;-48
2022/03/08 11:04:06;;;;;;;41.75;27.08;;;;;;;;;;5073234;28;20048;-53
2022/03/08 11:06:32;;;;;;;33.05;19.95;;;;;;;;;;5073486;28;20069;-48
2022/03/08 11:08:58;;;;;;;45.45;25.75;;;;;;;;;;5073392;28;20495;-45
2022/03/08 11:11:24;;;;;;;43.47;26.80;;;;;;;;;;5073768;28;20025;-49
2022/03/08 11:13:51;;;;;;;35.05;21.38;;;;;;;;;;5051024;28;20036;-50
2022/03/08 11:16:20;;;;;;;20.38;13.43;;;;;;;;;;5038389;28;20037;-49
2022/03/08 11:18:49;;;;;;;21.52;13.50;;;;;;;;;;5038181;28;20021;-53
2022/03/08 11:21:16;;;;;;;28.13;13.85;;;;;;;;;;5038401;28;20024;-50
2022/03/08 11:23:44;;;;;;;22.17;13.80;;;;;;;;;;5038416;28;20032;-57
2022/03/08 11:26:12;;;;;;;26.85;15.82;;;;;;;;;;5038403;28;20032;-53
2022/03/08 11:28:39;;;;;;;22.20;13.55;;;;;;;;;;5060337;28;20020;-43
2022/03/08 11:31:05;;;;;;;43.85;20.88;;;;;;;;;;5073576;28;20032;-45
2022/03/08 11:33:37;;;;;;;33.33;17.73;;;;;;;;;;5073448;28;20025;-46
2022/03/08 11:36:07;;;;;;;27.00;15.13;;;;;;;;;;5072908;28;20028;-44
2022/03/08 11:38:33;;;;;;;23.27;12.73;;;;;;;;;;5072511;28;20103;-48
2022/03/08 11:40:59;;;;;;;25.88;14.80;;;;;;;;;;5072625;28;20106;-46
2022/03/08 11:43:42;;;;;;;27.95;15.57;;;;;;;;;;5072986;28;20025;-49
2022/03/08 11:46:19;;;;;;;27.77;16.65;;;;;;;;;;5073155;28;20024;-52
2022/03/08 11:48:55;;;;;;;29.83;18.08;;;;;;;;;;5073333;28;20112;-53
2022/03/08 11:51:21;;;;;;;23.38;14.45;;;;;;;;;;5073126;28;20023;-56
2022/03/08 11:53:47;;;;;;;44.50;21.65;;;;;;;;;;5072883;28;20099;-52
2022/03/08 11:56:18;;;;;;;73.57;40.85;;;;;;;;;;5073341;28;20040;-56
2022/03/08 11:58:46;;;;;;;75.07;46.00;;;;;;;;;;5072865;28;20021;-58
2022/03/08 12:01:26;;;;;;;42.50;24.98;;;;;;;;;;5071890;28;20055;-42
2022/03/08 12:03:57;;;;;;;31.02;16.42;;;;;;;;;;5069455;28;20108;-46
2022/03/08 12:06:30;;;;;;;28.33;16.33;;;;;;;;;;5072341;28;20020;-48
2022/03/08 12:09:00;;;;;;;29.95;18.05;;;;;;;;;;5070294;28;20023;-48
2022/03/08 12:11:29;;;;;;;34.00;15.95;;;;;;;;;;5072442;28;20029;-46
2022/03/08 12:14:09;;;;;;;46.53;24.55;;;;;;;;;;5072376;28;20070;-50
2022/03/08 12:16:35;;;;;;;73.13;40.38;;;;;;;;;;5069991;28;20078;-48
2022/03/08 12:19:03;;;;;;;40.10;23.10;;;;;;;;;;5072447;28;20020;-52
2022/03/08 12:21:29;;;;;;;35.50;20.42;;;;;;;;;;5072507;28;20067;-49
2022/03/08 12:23:56;;;;;;;45.85;25.55;;;;;;;;;;5072390;28;20088;-46
2022/03/08 12:26:23;;;;;;;44.70;22.50;;;;;;;;;;5072416;28;20020;-47
2022/03/08 12:29:08;;;;;;;36.00;20.83;;;;;;;;;;5072106;28;20020;-47
2022/03/08 12:31:54;;;;;;;38.97;19.05;;;;;;;;;;5069759;28;20409;-49
2022/03/08 12:34:35;;;;;;;46.05;23.38;;;;;;;;;;5070689;28;20036;-48
2022/03/08 12:37:21;;;;;;;34.78;17.83;;;;;;;;;;5070713;28;20052;-48
2022/03/08 12:40:09;;;;;;;26.48;15.40;;;;;;;;;;5071837;28;20029;-50
2022/03/08 12:42:38;;;;;;;28.98;16.00;;;;;;;;;;5054240;28;20020;-49
2022/03/08 12:45:17;;;;;;;19.98;13.60;;;;;;;;;;5072390;28;20023;-50
2022/03/08 12:47:46;;;;;;;15.90;11.25;;;;;;;;;;5071023;28;20017;-52
2022/03/08 12:50:14;;;;;;;21.63;12.40;;;;;;;;;;5072052;28;20024;-51
2022/03/08 12:52:56;;;;;;;16.13;10.93;;;;;;;;;;5071893;28;20031;-49
2022/03/08 12:55:27;;;;;;;46.45;24.83;;;;;;;;;;5070790;28;20038;-52
2022/03/08 12:57:55;;;;;;;69.32;35.42;;;;;;;;;;5071993;28;20427;-48
2022/03/08 13:00:25;;;;;;;49.00;23.92;;;;;;;;;;5071944;28;20413;-47
2022/03/08 13:02:52;;;;;;;49.97;27.05;;;;;;;;;;5071674;28;20036;-47
2022/03/08 13:05:24;;;;;;;46.25;27.80;;;;;;;;;;5072157;28;20020;-47
2022/03/08 13:07:51;;;;;;;26.30;16.67;;;;;;;;;;5071911;28;20116;-48
2022/03/08 13:10:17;;;;;;;20.73;13.00;;;;;;;;;;5071990;28;20025;-48
2022/03/08 13:12:49;;;;;;;18.45;10.52;;;;;;;;;;5074959;28;20021;-47
2022/03/08 13:15:17;;;;;;;16.65;11.15;;;;;;;;;;5072712;28;20023;-50
2022/03/08 13:17:45;;;;;;;18.08;11.02;;;;;;;;;;5075134;28;20484;-49
2022/03/08 13:20:31;;;;;;;21.08;11.95;;;;;;;;;;5075004;28;20392;-51
2022/03/08 13:23:02;;;;;;;20.10;12.18;;;;;;;;;;5073121;28;20379;-48
2022/03/08 13:25:28;;;;;;;22.77;14.52;;;;;;;;;;5075371;28;20137;-50
2022/03/08 13:28:03;;;;;;;27.73;14.45;;;;;;;;;;5072710;28;20519;-50
2022/03/08 13:30:29;;;;;;;22.83;13.55;;;;;;;;;;5075173;28;20032;-50
2022/03/08 13:33:14;;;;;;;20.25;11.15;;;;;;;;;;5075037;28;20044;-51
2022/03/08 13:35:44;;;;;;;19.23;10.23;;;;;;;;;;5073467;28;20106;-49
2022/03/08 13:38:11;;;;;;;18.13;10.15;;;;;;;;;;5074899;28;20461;-48
2022/03/08 13:40:37;;;;;;;15.55;9.38;;;;;;;;;;5074855;28;20107;-49
2022/03/08 13:43:03;;;;;;;12.85;7.68;;;;;;;;;;5074970;28;20115;-49
2022/03/08 13:45:30;;;;;;;13.57;7.78;;;;;;;;;;5075159;28;20082;-49
2022/03/08 13:47:57;;;;;;;16.33;7.88;;;;;;;;;;5075708;28;20056;-50
2022/03/08 13:50:23;;;;;;;19.15;9.73;;;;;;;;;;5075454;28;20021;-49
2022/03/08 13:52:56;;;;;;;20.45;10.85;;;;;;;;;;5075374;28;20472;-49
2022/03/08 13:55:29;;;;;;;17.23;10.23;;;;;;;;;;5075399;28;20031;-50
2022/03/08 13:58:12;;;;;;;14.75;9.50;;;;;;;;;;5075330;28;20488;-51
2022/03/08 14:00:39;;;;;;;16.48;9.77;;;;;;;;;;5075115;28;20070;-52
2022/03/08 14:03:07;;;;;;;17.95;11.07;;;;;;;;;;5073738;28;20143;-48
2022/03/08 14:06:02;;;;;;;19.10;10.18;;;;;;;;;;5074603;28;20028;-51
2022/03/08 14:08:29;;;;;;;15.88;11.07;;;;;;;;;;4992794;28;20491;-47
2022/03/08 14:10:57;;;;;;;20.05;12.02;;;;;;;;;;4976771;28;20026;-48
2022/03/08 14:13:23;;;;;;;17.98;10.80;;;;;;;;;;4993131;28;20035;-49
2022/03/08 14:15:56;;;;;;;14.45;9.93;;;;;;;;;;4992983;28;20454;-51
2022/03/08 14:18:22;;;;;;;15.50;9.65;;;;;;;;;;4992839;28;20050;-50
2022/03/08 14:20:53;;;;;;;17.15;10.43;;;;;;;;;;4993369;28;20027;-52
2022/03/08 14:23:19;;;;;;;18.98;12.18;;;;;;;;;;4992509;28;20019;-49